createdAt,value
2022-09-23T00:05:03.309Z,1.20
2022-09-23T00:10:00.336Z,1.08
2022-09-23T00:14:57.321Z,1.08
2022-09-23T00:19:59.660Z,1.05
2022-09-23T00:24:59.436Z,1.20
2022-09-23T00:29:56.836Z,1.10
2022-09-23T00:34:57.494Z,1.50
2022-09-23T00:39:56.471Z,1.40
2022-09-23T00:44:56.738Z,1.20
2022-09-23T00:50:06.617Z,1.73
2022-09-23T00:55:14.675Z,1.40
2022-09-23T01:00:13.136Z,1.48
2022-09-23T01:05:11.306Z,1.65
2022-09-23T01:10:10.909Z,1.08
2022-09-23T01:15:15.293Z,1.85
2022-09-23T01:20:41.904Z,1.20
2022-09-23T01:26:03.427Z,2.17
2022-09-23T01:31:07.589Z,1.23
2022-09-23T01:36:18.980Z,1.40
2022-09-23T01:41:41.228Z,1.48
2022-09-23T01:46:47.955Z,1.48
2022-09-23T01:51:50.379Z,1.40
2022-09-23T01:56:51.914Z,1.42
2022-09-23T02:01:55.455Z,1.70
2022-09-23T02:07:00.436Z,1.60
2022-09-23T02:12:04.299Z,2.00
2022-09-23T02:17:08.395Z,1.95
2022-09-23T02:22:08.772Z,2.30
2022-09-23T02:27:18.933Z,2.85
2022-09-23T02:32:46.694Z,1.85
2022-09-23T02:37:49.339Z,2.65
2022-09-23T02:42:55.872Z,1.85
2022-09-23T02:47:58.727Z,1.48
2022-09-23T02:52:55.893Z,2.67
2022-09-23T02:57:53.059Z,2.35
2022-09-23T03:03:10.000Z,2.63
2022-09-23T03:08:36.664Z,1.92
2022-09-23T03:19:55.912Z,2.60
2022-09-23T03:24:56.944Z,2.33
2022-09-23T03:29:56.666Z,2.78
2022-09-23T03:34:58.983Z,1.88
2022-09-23T03:40:21.991Z,2.75
2022-09-23T03:45:32.911Z,2.53
2022-09-23T03:50:45.245Z,2.60
2022-09-23T03:55:50.197Z,2.05
2022-09-23T04:00:51.065Z,2.63
2022-09-23T04:05:56.099Z,2.88
2022-09-23T04:10:56.858Z,3.10
2022-09-23T04:15:58.604Z,3.40
2022-09-23T04:21:10.436Z,10.52
2022-09-23T04:26:14.647Z,6.28
2022-09-23T04:31:57.285Z,6.10
2022-09-23T04:37:02.722Z,6.45
2022-09-23T04:47:11.984Z,7.13
2022-09-23T04:52:49.328Z,4.45
2022-09-23T04:57:58.303Z,6.03
2022-09-23T05:03:11.577Z,4.75
2022-09-23T05:09:06.373Z,3.58
2022-09-23T05:20:16.546Z,4.55
2022-09-23T05:25:24.266Z,4.55
2022-09-23T05:30:33.605Z,3.72
2022-09-23T05:35:51.480Z,4.45
2022-09-23T05:40:58.102Z,4.57
2022-09-23T05:46:09.081Z,4.38
2022-09-23T05:51:10.685Z,4.03
2022-09-23T05:56:08.568Z,5.25
2022-09-23T06:01:10.847Z,4.45
2022-09-23T06:06:28.201Z,4.03
2022-09-23T06:11:32.774Z,5.65
2022-09-23T06:16:35.456Z,6.00
2022-09-23T06:21:34.647Z,4.10
2022-09-23T06:26:37.951Z,3.65
2022-09-23T06:31:37.433Z,4.53
2022-09-23T06:36:46.510Z,5.00
2022-09-23T06:41:55.776Z,3.90
2022-09-23T06:47:13.325Z,3.75
2022-09-23T06:52:13.360Z,3.85
2022-09-23T06:57:31.410Z,4.05
2022-09-23T07:02:37.792Z,4.00
2022-09-23T07:07:53.410Z,7.10
2022-09-23T07:13:23.429Z,3.63
2022-09-23T07:18:45.209Z,3.42
2022-09-23T07:36:13.026Z,4.07
2022-09-23T07:48:34.114Z,6.18
2022-09-23T07:59:47.434Z,6.45
2022-09-23T08:04:47.213Z,6.50
2022-09-23T08:10:02.880Z,7.30
2022-09-23T08:15:32.825Z,6.50
2022-09-23T08:22:25.698Z,6.78
2022-09-23T08:27:08.933Z,6.32
2022-09-23T08:32:06.642Z,7.43
2022-09-23T08:37:17.093Z,6.80
2022-09-23T08:42:27.727Z,6.65
2022-09-23T08:48:12.226Z,6.73
2022-09-23T08:53:48.279Z,8.23
2022-09-23T08:59:07.072Z,6.70
2022-09-23T09:04:33.385Z,5.85
2022-09-23T09:10:33.645Z,5.93
2022-09-23T09:15:51.306Z,5.65
2022-09-23T09:21:29.438Z,4.85
2022-09-23T09:26:55.575Z,5.60
2022-09-23T09:32:15.076Z,5.30
2022-09-23T09:37:39.025Z,6.28
2022-09-23T09:42:47.907Z,4.72
2022-09-23T09:54:04.726Z,5.50
2022-09-23T09:59:48.680Z,5.25
2022-09-23T10:05:46.846Z,5.82
2022-09-23T10:11:23.408Z,6.38
2022-09-23T10:16:36.372Z,6.47
2022-09-23T10:21:54.958Z,4.53
2022-09-23T10:27:08.512Z,4.78
2022-09-23T10:32:45.227Z,4.85
2022-09-23T10:44:53.706Z,5.05
2022-09-23T10:57:03.320Z,2.78
2022-09-23T11:02:51.157Z,2.15
2022-09-23T11:14:04.879Z,1.85
2022-09-23T11:19:47.193Z,2.28
2022-09-23T11:25:28.577Z,2.10
2022-09-23T11:31:08.702Z,1.98
2022-09-23T11:36:22.127Z,1.98
2022-09-23T11:41:28.374Z,1.90
2022-09-23T11:47:11.927Z,2.00
2022-09-23T11:52:19.290Z,2.00
2022-09-23T11:58:04.224Z,2.55
2022-09-23T12:03:42.260Z,3.30
2022-09-23T12:09:56.714Z,2.00
2022-09-23T12:20:53.168Z,1.60
2022-09-23T12:26:25.948Z,1.80
2022-09-23T12:38:35.014Z,1.50
2022-09-23T12:44:06.455Z,2.17
2022-09-23T12:49:42.789Z,1.70
2022-09-23T12:55:17.670Z,1.80
2022-09-23T13:00:50.350Z,1.98
2022-09-23T13:06:30.849Z,2.60
2022-09-23T13:12:14.615Z,1.90
2022-09-23T13:17:43.645Z,1.80
2022-09-23T13:23:20.539Z,2.10
2022-09-23T13:28:57.245Z,1.85
2022-09-23T13:41:05.273Z,1.60
2022-09-23T13:46:32.481Z,2.40
2022-09-23T13:52:17.677Z,3.25
2022-09-23T13:57:34.499Z,2.05
2022-09-23T14:02:45.102Z,1.48
2022-09-23T14:08:02.385Z,1.50
2022-09-23T14:13:16.079Z,1.67
2022-09-23T14:24:00.106Z,1.52
2022-09-23T14:29:34.215Z,1.77
2022-09-23T14:34:56.556Z,1.85
2022-09-23T14:40:02.926Z,1.83
2022-09-23T14:45:10.781Z,1.73
2022-09-23T14:51:05.985Z,1.90
2022-09-23T14:56:30.039Z,2.75
2022-09-23T15:01:41.592Z,1.45
2022-09-23T15:12:30.077Z,0.83
2022-09-23T15:22:49.531Z,1.30
2022-09-23T15:28:17.623Z,0.90
2022-09-23T15:33:27.144Z,1.20
2022-09-23T15:38:27.993Z,1.10
2022-09-23T15:43:28.744Z,1.13
2022-09-23T15:48:31.168Z,1.20
2022-09-23T15:54:22.407Z,1.88
2022-09-23T15:59:45.573Z,1.30
2022-09-23T16:04:44.175Z,2.20
2022-09-23T16:09:55.595Z,2.60
2022-09-23T16:15:13.208Z,1.67
2022-09-23T16:20:21.117Z,2.15
2022-09-23T16:25:28.840Z,2.10
2022-09-23T16:30:49.063Z,2.17
2022-09-23T16:35:52.090Z,2.33
2022-09-23T16:41:10.796Z,3.47
2022-09-23T16:46:08.857Z,3.58
2022-09-23T16:51:19.938Z,3.08
2022-09-23T16:56:33.870Z,2.95
2022-09-23T17:01:58.245Z,3.40
2022-09-23T17:06:58.698Z,4.65
2022-09-23T17:12:22.924Z,6.32
2022-09-23T17:17:23.290Z,6.97
2022-09-23T17:22:33.359Z,23.17
2022-09-23T17:27:36.323Z,22.02
2022-09-23T17:32:52.316Z,9.65
2022-09-23T17:37:59.940Z,11.02
2022-09-23T17:43:21.104Z,10.57
2022-09-23T17:48:43.215Z,9.52
2022-09-23T17:53:47.739Z,8.95
2022-09-23T17:58:51.152Z,8.70
2022-09-23T18:09:36.404Z,3.40
2022-09-23T18:14:41.146Z,2.07
2022-09-23T18:19:52.212Z,3.03
2022-09-23T18:25:06.275Z,2.60
2022-09-23T18:30:29.086Z,2.77
2022-09-23T18:35:30.110Z,2.53
2022-09-23T18:40:35.765Z,2.55
2022-09-23T18:45:40.574Z,2.75
2022-09-23T18:50:43.135Z,2.30
2022-09-23T18:55:42.088Z,3.05
2022-09-23T19:00:40.246Z,3.05
2022-09-23T19:05:40.367Z,3.22
2022-09-23T19:10:39.264Z,3.17
2022-09-23T19:15:41.849Z,4.13
2022-09-23T19:20:51.963Z,5.60
2022-09-23T19:31:26.140Z,5.20
2022-09-23T19:36:30.362Z,4.45
2022-09-23T19:41:32.340Z,4.00
2022-09-23T19:46:44.000Z,5.60
2022-09-23T19:52:01.956Z,4.80
2022-09-23T19:57:36.748Z,4.03
2022-09-23T20:02:47.350Z,3.22
2022-09-23T20:07:46.705Z,2.42
2022-09-23T20:12:56.031Z,2.80
2022-09-23T20:18:03.299Z,2.60
2022-09-23T20:23:01.314Z,2.90
2022-09-23T20:27:58.578Z,2.10
2022-09-23T20:33:07.398Z,2.00
2022-09-23T20:38:09.950Z,1.98
2022-09-23T20:43:09.542Z,2.38
2022-09-23T20:48:21.935Z,2.08
2022-09-23T20:53:34.586Z,2.15
2022-09-23T20:58:42.274Z,2.22
2022-09-23T21:03:44.030Z,3.05
2022-09-23T21:08:57.426Z,2.38
2022-09-23T21:13:58.280Z,2.83
2022-09-23T21:19:03.700Z,2.42
2022-09-23T21:29:33.295Z,2.60
2022-09-23T21:34:40.759Z,2.90
2022-09-23T21:39:58.975Z,2.17
2022-09-23T21:45:08.994Z,8.50
2022-09-23T21:50:16.710Z,2.10
2022-09-23T21:55:14.517Z,2.78
2022-09-23T22:00:16.915Z,2.50
2022-09-23T22:05:24.079Z,2.90
2022-09-23T22:10:31.162Z,2.47
2022-09-23T22:15:31.243Z,2.30
2022-09-23T22:20:28.681Z,2.50
2022-09-23T22:25:26.772Z,2.20
2022-09-23T22:30:44.553Z,1.98
2022-09-23T22:35:41.818Z,2.42
2022-09-23T22:40:45.828Z,2.20
2022-09-23T22:45:49.525Z,2.05
2022-09-23T22:50:49.386Z,2.03
2022-09-23T22:55:58.239Z,2.15
2022-09-23T23:01:03.689Z,2.20
2022-09-23T23:06:04.819Z,1.88
2022-09-23T23:11:09.639Z,2.70
2022-09-23T23:16:08.847Z,2.33
2022-09-23T23:21:07.528Z,2.30
2022-09-23T23:26:11.502Z,3.50
2022-09-23T23:31:26.047Z,4.25
2022-09-23T23:36:23.896Z,3.67
2022-09-23T23:41:35.084Z,3.70
2022-09-23T23:46:36.698Z,3.47
2022-09-23T23:51:49.425Z,3.00
2022-09-23T23:56:47.404Z,3.22
